OIBK

Kish International Airport

Kish Island, Iran
TAF OIBK 181730Z 1818/1924 30003MPS 6000 NSC BECMG 1823/1901 5000 BR BECMG 1903/1905 12005MPS 6000 BECMG 1909/1911 25007MPS
Issued Valid From Valid To
Jul-18 @ 17:30 UTC
(5 hours ago)
Jul-18 @ 18:00 UTC
(4 hours ago)
Jul-20 @ 00:00 UTC
(-1 days ago)
Jul-18 @ 18:00 to Jul-18 @ 23:00
TAF OIBK 181730Z 1818/1924 30003MPS 6000 NSC
Wind Visibility Clouds
300° at 6 knots 6,003 meters
  • No significant clouds
Becoming Jul-18 @ 23:00 to Jul-19 @ 03:00
BECMG 1823/1901 5000 BR
Wind Visibility Clouds Conditions
300° at 6 knots 5,005 meters
  • No significant clouds
  • Mist
Becoming Jul-19 @ 03:00 to Jul-19 @ 09:00
BECMG 1903/1905 12005MPS 6000
Wind Visibility Clouds Conditions
120° at 10 knots 6,003 meters
  • No significant clouds
  • Mist
Becoming Jul-19 @ 09:00 to Jul-20 @ 00:00
BECMG 1909/1911 25007MPS
Wind Visibility Clouds Conditions
250° at 14 knots 6,003 meters
  • No significant clouds
  • Mist
TAF OIBK 181730Z 1818/1924 30003MPS 6000 NSC BECMG 1823/1901 5000 BR BECMG 1903/1905 12005MPS 6000 BECMG 1909/1911 25007MPS
Issued Jul-18 @ 17:30 UTC
(5 hours ago)
Valid From Jul-18 @ 18:00 UTC
(4 hours ago)
Valid To Jul-20 @ 00:00 UTC
(-1 days ago)
Jul-18 @ 18:00 - Jul-18 @ 23:00
Wind Visibility
300° at 6 knots 6,003 meters
Clouds
  • No significant clouds
Becoming Jul-18 @ 23:00 - Jul-19 @ 03:00
Wind Visibility
300° at 6 knots 5,005 meters
Clouds
  • No significant clouds
Conditions
  • Mist
Becoming Jul-19 @ 03:00 - Jul-19 @ 09:00
Wind Visibility
120° at 10 knots 6,003 meters
Clouds
  • No significant clouds
Conditions
  • Mist
Becoming Jul-19 @ 09:00 - Jul-20 @ 00:00
Wind Visibility
250° at 14 knots 6,003 meters
Clouds
  • No significant clouds
Conditions
  • Mist